Terminal Aerodrome Forecast
Issued by NWS

Home | Current Version | Previous Version | Text Only | Print | Product List | Glossary On
Versions: 1 2 3 4 5 6 7 8 9 10 11 12 13 14 15 16
000
FTUS43 KOAX 301100
TAFBFF
TAF
KBFF 301138Z 3012/3112 13006KT P6SM FEW120
     FM301800 24011G18KT P6SM SCT100
     FM302200 22010KT P6SM VCTS BKN100CB
     FM310200 25008KT P6SM BKN100=

USA.gov is the U.S. government's official web portal to all federal, state and local government web resources and services.